sensor_id;sensor_type;location;lat;lon;timestamp;pressure;altitude;pressure_sealevel;temperature;humidity
68891;BME280;55932;48.702;8.884;2023-08-07T00:01:39;96010;;;9.9;73
68891;BME280;55932;48.702;8.884;2023-08-07T00:04:09;96010;;;9.9;73
68891;BME280;55932;48.702;8.884;2023-08-07T00:06:39;96010;;;9.8;73
68891;BME280;55932;48.702;8.884;2023-08-07T00:09:21;96010;;;9.8;73
68891;BME280;55932;48.702;8.884;2023-08-07T00:11:51;96010;;;9.9;73
68891;BME280;55932;48.702;8.884;2023-08-07T00:14:21;96010;;;9.9;73
68891;BME280;55932;48.702;8.884;2023-08-07T00:17:01;96010;;;9.9;73
68891;BME280;55932;48.702;8.884;2023-08-07T00:19:23;96010;;;9.9;73
68891;BME280;55932;48.702;8.884;2023-08-07T00:26:42;96010;;;10;72.5
68891;BME280;55932;48.702;8.884;2023-08-07T00:29:12;96010;;;10;72.5
68891;BME280;55932;48.702;8.884;2023-08-07T00:31:42;96020;;;10;72.5
68891;BME280;55932;48.702;8.884;2023-08-07T00:34:12;96020;;;10;72.5
68891;BME280;55932;48.702;8.884;2023-08-07T00:36:42;96010;;;10;72.5
68891;BME280;55932;48.702;8.884;2023-08-07T00:39:12;96010;;;10.1;72.5
68891;BME280;55932;48.702;8.884;2023-08-07T00:41:42;96010;;;10;72.5
68891;BME280;55932;48.702;8.884;2023-08-07T00:44:13;96020;;;10;72.5
68891;BME280;55932;48.702;8.884;2023-08-07T00:46:32;96020;;;10;72.5
68891;BME280;55932;48.702;8.884;2023-08-07T00:49:02;96020;;;10;72.5
68891;BME280;55932;48.702;8.884;2023-08-07T00:51:33;96030;;;10;72.5
68891;BME280;55932;48.702;8.884;2023-08-07T00:54:04;96030;;;10;72.5
68891;BME280;55932;48.702;8.884;2023-08-07T00:59:04;96040;;;10.1;72.5
68891;BME280;55932;48.702;8.884;2023-08-07T01:01:34;96040;;;10.1;72.5
68891;BME280;55932;48.702;8.884;2023-08-07T01:04:16;96040;;;10.1;72.5
68891;BME280;55932;48.702;8.884;2023-08-07T01:06:47;96050;;;10.2;72.5
68891;BME280;55932;48.702;8.884;2023-08-07T01:09:26;96050;;;10.3;72.5
68891;BME280;55932;48.702;8.884;2023-08-07T01:14:34;96050;;;10.3;72.5
68891;BME280;55932;48.702;8.884;2023-08-07T01:16:50;96050;;;10.3;72.5
68891;BME280;55932;48.702;8.884;2023-08-07T01:22:14;96060;;;10.3;72.5
68891;BME280;55932;48.702;8.884;2023-08-07T01:27:00;96060;;;10.4;72.5
68891;BME280;55932;48.702;8.884;2023-08-07T01:29:42;96060;;;10.6;72.5
68891;BME280;55932;48.702;8.884;2023-08-07T01:31:49;96050;;;10.7;72
68891;BME280;55932;48.702;8.884;2023-08-07T01:34:19;96050;;;10.7;72
68891;BME280;55932;48.702;8.884;2023-08-07T01:39:08;96060;;;10.6;72
68891;BME280;55932;48.702;8.884;2023-08-07T01:41:40;96060;;;10.5;72.5
68891;BME280;55932;48.702;8.884;2023-08-07T01:49:11;96060;;;10.6;72.5
68891;BME280;55932;48.702;8.884;2023-08-07T01:51:41;96070;;;10.6;72.5
68891;BME280;55932;48.702;8.884;2023-08-07T01:54:11;96070;;;10.6;72.5
68891;BME280;55932;48.702;8.884;2023-08-07T01:56:42;96080;;;10.6;72.5
68891;BME280;55932;48.702;8.884;2023-08-07T01:59:12;96080;;;10.7;72.5
68891;BME280;55932;48.702;8.884;2023-08-07T02:01:54;96080;;;10.7;72.5
68891;BME280;55932;48.702;8.884;2023-08-07T02:04:24;96070;;;10.7;72
68891;BME280;55932;48.702;8.884;2023-08-07T02:06:57;96070;;;10.7;72
68891;BME280;55932;48.702;8.884;2023-08-07T02:14:14;96070;;;10.8;72
68891;BME280;55932;48.702;8.884;2023-08-07T02:16:45;96070;;;10.8;72
68891;BME280;55932;48.702;8.884;2023-08-07T02:19:17;96080;;;10.9;72
68891;BME280;55932;48.702;8.884;2023-08-07T02:21:46;96090;;;10.9;72
68891;BME280;55932;48.702;8.884;2023-08-07T02:24:16;96090;;;10.9;72
68891;BME280;55932;48.702;8.884;2023-08-07T02:26:47;96090;;;10.9;72
68891;BME280;55932;48.702;8.884;2023-08-07T02:29:17;96090;;;10.9;72
68891;BME280;55932;48.702;8.884;2023-08-07T02:31:48;96090;;;11;72
68891;BME280;55932;48.702;8.884;2023-08-07T02:34:30;96080;;;10.9;72
68891;BME280;55932;48.702;8.884;2023-08-07T02:37:00;96090;;;10.9;72
68891;BME280;55932;48.702;8.884;2023-08-07T02:39:30;96090;;;10.9;72
68891;BME280;55932;48.702;8.884;2023-08-07T02:42:09;96090;;;10.8;72
68891;BME280;55932;48.702;8.884;2023-08-07T02:46:49;96090;;;10.8;72
68891;BME280;55932;48.702;8.884;2023-08-07T02:49:19;96090;;;10.9;72
68891;BME280;55932;48.702;8.884;2023-08-07T02:51:50;96090;;;10.9;72
68891;BME280;55932;48.702;8.884;2023-08-07T02:54:27;96080;;;10.8;72
68891;BME280;55932;48.702;8.884;2023-08-07T02:56:51;96090;;;10.7;72
68891;BME280;55932;48.702;8.884;2023-08-07T02:59:21;96090;;;10.7;72
68891;BME280;55932;48.702;8.884;2023-08-07T03:01:52;96090;;;10.7;72.5
68891;BME280;55932;48.702;8.884;2023-08-07T03:12:14;96090;;;10.5;72.5
68891;BME280;55932;48.702;8.884;2023-08-07T03:14:35;96090;;;10.5;72.5
68891;BME280;55932;48.702;8.884;2023-08-07T03:17:05;96090;;;10.4;72.5
68891;BME280;55932;48.702;8.884;2023-08-07T03:19:25;96090;;;10.3;72.5
68891;BME280;55932;48.702;8.884;2023-08-07T03:21:55;96100;;;10.3;73
68891;BME280;55932;48.702;8.884;2023-08-07T03:26:56;96100;;;10.3;72.5
68891;BME280;55932;48.702;8.884;2023-08-07T03:29:59;96100;;;10.3;72.5
68891;BME280;55932;48.702;8.884;2023-08-07T03:32:29;96100;;;10.4;72.5
68891;BME280;55932;48.702;8.884;2023-08-07T03:34:51;96100;;;10.4;72.5
68891;BME280;55932;48.702;8.884;2023-08-07T03:39:41;96110;;;10.4;72.5
68891;BME280;55932;48.702;8.884;2023-08-07T03:42:11;96110;;;10.3;73
68891;BME280;55932;48.702;8.884;2023-08-07T03:44:41;96110;;;10.3;73
68891;BME280;55932;48.702;8.884;2023-08-07T03:49:30;96110;;;10.2;73
68891;BME280;55932;48.702;8.884;2023-08-07T03:52:01;96110;;;10.1;73
68891;BME280;55932;48.702;8.884;2023-08-07T03:54:31;96110;;;10.1;73
68891;BME280;55932;48.702;8.884;2023-08-07T03:57:02;96120;;;10.1;73
68891;BME280;55932;48.702;8.884;2023-08-07T03:59:32;96110;;;10.1;73
68891;BME280;55932;48.702;8.884;2023-08-07T04:02:02;96110;;;10.2;73
68891;BME280;55932;48.702;8.884;2023-08-07T04:04:44;96120;;;10.3;73
68891;BME280;55932;48.702;8.884;2023-08-07T04:07:14;96120;;;10.3;72.5
68891;BME280;55932;48.702;8.884;2023-08-07T04:09:46;96110;;;10.3;72.5
68891;BME280;55932;48.702;8.884;2023-08-07T04:12:15;96120;;;10.2;73
68891;BME280;55932;48.702;8.884;2023-08-07T04:22:04;96120;;;10;73
68891;BME280;55932;48.702;8.884;2023-08-07T04:24:35;96120;;;9.9;73
68891;BME280;55932;48.702;8.884;2023-08-07T04:27:06;96120;;;9.9;73
68891;BME280;55932;48.702;8.884;2023-08-07T04:29:36;96120;;;9.8;73
68891;BME280;55932;48.702;8.884;2023-08-07T04:32:06;96120;;;9.8;73
68891;BME280;55932;48.702;8.884;2023-08-07T04:34:37;96130;;;9.8;73
68891;BME280;55932;48.702;8.884;2023-08-07T04:37:07;96120;;;9.8;73
68891;BME280;55932;48.702;8.884;2023-08-07T04:44:39;96130;;;10.2;73
68891;BME280;55932;48.702;8.884;2023-08-07T04:54:52;96130;;;10.2;73
68891;BME280;55932;48.702;8.884;2023-08-07T04:57:22;96120;;;10.3;73
68891;BME280;55932;48.702;8.884;2023-08-07T04:59:52;96130;;;10.3;73
68891;BME280;55932;48.702;8.884;2023-08-07T05:02:12;96130;;;10.3;73
68891;BME280;55932;48.702;8.884;2023-08-07T05:09:44;96130;;;10.4;72.5
68891;BME280;55932;48.702;8.884;2023-08-07T05:12:14;96130;;;10.4;72.5
68891;BME280;55932;48.702;8.884;2023-08-07T05:14:44;96130;;;10.5;72.5
68891;BME280;55932;48.702;8.884;2023-08-07T05:17:15;96130;;;10.6;72.5
68891;BME280;55932;48.702;8.884;2023-08-07T05:19:45;96130;;;10.9;72.5
68891;BME280;55932;48.702;8.884;2023-08-07T05:27:39;96130;;;11.4;72
68891;BME280;55932;48.702;8.884;2023-08-07T05:32:49;96140;;;11.7;71.5
68891;BME280;55932;48.702;8.884;2023-08-07T05:37:59;96150;;;11.9;71.5
68891;BME280;55932;48.702;8.884;2023-08-07T05:40:12;96140;;;12;71.5
68891;BME280;55932;48.702;8.884;2023-08-07T05:42:31;96140;;;12;71.5
68891;BME280;55932;48.702;8.884;2023-08-07T05:45:01;96150;;;12;71.5
68891;BME280;55932;48.702;8.884;2023-08-07T05:47:31;96150;;;12;71.5
68891;BME280;55932;48.702;8.884;2023-08-07T05:50:01;96150;;;11.9;71.5
68891;BME280;55932;48.702;8.884;2023-08-07T05:52:44;96150;;;12;71.5
68891;BME280;55932;48.702;8.884;2023-08-07T05:55:13;96150;;;12.1;71.5
68891;BME280;55932;48.702;8.884;2023-08-07T05:57:44;96150;;;12.1;71.5
68891;BME280;55932;48.702;8.884;2023-08-07T06:00:03;96160;;;12.1;71.5
68891;BME280;55932;48.702;8.884;2023-08-07T06:02:33;96160;;;12.1;71.5
68891;BME280;55932;48.702;8.884;2023-08-07T06:07:23;96170;;;12.2;71.5
68891;BME280;55932;48.702;8.884;2023-08-07T06:09:53;96170;;;12.3;71
68891;BME280;55932;48.702;8.884;2023-08-07T06:12:23;96170;;;12.4;71
68891;BME280;55932;48.702;8.884;2023-08-07T06:20:08;96170;;;12.6;71
68891;BME280;55932;48.702;8.884;2023-08-07T06:22:28;96170;;;12.6;71
68891;BME280;55932;48.702;8.884;2023-08-07T06:24:56;96170;;;12.6;71
68891;BME280;55932;48.702;8.884;2023-08-07T06:27:27;96180;;;12.6;71
68891;BME280;55932;48.702;8.884;2023-08-07T06:32:28;96190;;;12.7;71
68891;BME280;55932;48.702;8.884;2023-08-07T06:34:58;96190;;;12.8;71
68891;BME280;55932;48.702;8.884;2023-08-07T06:42:30;96200;;;13;71
68891;BME280;55932;48.702;8.884;2023-08-07T06:45:00;96200;;;13.1;70.5
68891;BME280;55932;48.702;8.884;2023-08-07T06:50:13;96200;;;13;71
68891;BME280;55932;48.702;8.884;2023-08-07T06:52:43;96200;;;13;71
68891;BME280;55932;48.702;8.884;2023-08-07T06:55:13;96200;;;13.1;70.5
68891;BME280;55932;48.702;8.884;2023-08-07T06:57:43;96190;;;13.1;71
68891;BME280;55932;48.702;8.884;2023-08-07T07:07:34;96190;;;13.5;70.5
68891;BME280;55932;48.702;8.884;2023-08-07T07:10:04;96190;;;13.7;70.5
68891;BME280;55932;48.702;8.884;2023-08-07T07:12:35;96190;;;13.9;70.5
68891;BME280;55932;48.702;8.884;2023-08-07T07:17:47;96200;;;16.4;70.5
68891;BME280;55932;48.702;8.884;2023-08-07T07:22:47;96190;;;17.8;69.5
68891;BME280;55932;48.702;8.884;2023-08-07T07:25:17;96200;;;18.4;69
68891;BME280;55932;48.702;8.884;2023-08-07T07:30:28;96210;;;16.7;68
68891;BME280;55932;48.702;8.884;2023-08-07T07:33:08;96210;;;16.5;69
68891;BME280;55932;48.702;8.884;2023-08-07T07:35:48;96210;;;16.2;68.5
68891;BME280;55932;48.702;8.884;2023-08-07T07:38:00;96220;;;15.5;69
68891;BME280;55932;48.702;8.884;2023-08-07T07:40:29;96220;;;15;70
68891;BME280;55932;48.702;8.884;2023-08-07T07:42:49;96220;;;15;71
68891;BME280;55932;48.702;8.884;2023-08-07T07:45:28;96220;;;16.6;72.5
68891;BME280;55932;48.702;8.884;2023-08-07T07:53:11;96220;;;18.8;69.5
68891;BME280;55932;48.702;8.884;2023-08-07T07:55:32;96220;;;18.3;70
68891;BME280;55932;48.702;8.884;2023-08-07T07:58:04;96220;;;18.6;70.5
68891;BME280;55932;48.702;8.884;2023-08-07T08:02:53;96230;;;18.4;70.5
68891;BME280;55932;48.702;8.884;2023-08-07T08:05:23;96230;;;18.9;71
68891;BME280;55932;48.702;8.884;2023-08-07T08:08:02;96220;;;18.9;70
68891;BME280;55932;48.702;8.884;2023-08-07T08:10:33;96230;;;18.5;70.5
68891;BME280;55932;48.702;8.884;2023-08-07T08:15:12;96240;;;18.3;70
68891;BME280;55932;48.702;8.884;2023-08-07T08:17:52;96250;;;18.3;71
68891;BME280;55932;48.702;8.884;2023-08-07T08:20:14;96250;;;18.1;70.5
68891;BME280;55932;48.702;8.884;2023-08-07T08:22:45;96250;;;18.5;71
68891;BME280;55932;48.702;8.884;2023-08-07T08:30:15;96250;;;18.7;69.5
68891;BME280;55932;48.702;8.884;2023-08-07T08:32:46;96250;;;18.4;70
68891;BME280;55932;48.702;8.884;2023-08-07T08:35:16;96240;;;17.5;70
68891;BME280;55932;48.702;8.884;2023-08-07T08:37:59;96250;;;17;70.5
68891;BME280;55932;48.702;8.884;2023-08-07T08:40:28;96230;;;18.5;71.5
68891;BME280;55932;48.702;8.884;2023-08-07T08:43:00;96240;;;19.6;70.5
68891;BME280;55932;48.702;8.884;2023-08-07T08:45:18;96230;;;20;69.5
68891;BME280;55932;48.702;8.884;2023-08-07T08:47:49;96240;;;19;69
68891;BME280;55932;48.702;8.884;2023-08-07T08:52:50;96240;;;18.1;70.5
68891;BME280;55932;48.702;8.884;2023-08-07T08:55:20;96250;;;17.8;70.5
68891;BME280;55932;48.702;8.884;2023-08-07T08:57:51;96250;;;17.7;71.5
68891;BME280;55932;48.702;8.884;2023-08-07T09:00:21;96250;;;18.5;71.5
68891;BME280;55932;48.702;8.884;2023-08-07T09:03:03;96230;;;19.5;70.5
68891;BME280;55932;48.702;8.884;2023-08-07T09:08:03;96240;;;19.7;70
68891;BME280;55932;48.702;8.884;2023-08-07T09:10:34;96240;;;20.3;69.5
68891;BME280;55932;48.702;8.884;2023-08-07T09:13:15;96230;;;21;69
68891;BME280;55932;48.702;8.884;2023-08-07T09:15:45;96240;;;20.7;68.5
68891;BME280;55932;48.702;8.884;2023-08-07T09:18:21;96230;;;20.9;68.5
68891;BME280;55932;48.702;8.884;2023-08-07T09:20:44;96250;;;20.9;68.5
68891;BME280;55932;48.702;8.884;2023-08-07T09:25:35;96250;;;19.7;68.5
68891;BME280;55932;48.702;8.884;2023-08-07T09:30:47;96260;;;19.1;69
68891;BME280;55932;48.702;8.884;2023-08-07T09:33:23;96270;;;18.5;69.5
68891;BME280;55932;48.702;8.884;2023-08-07T09:35:48;96270;;;18.1;69.5
68891;BME280;55932;48.702;8.884;2023-08-07T09:38:18;96280;;;17.6;70
68891;BME280;55932;48.702;8.884;2023-08-07T09:40:49;96290;;;17.5;70
68891;BME280;55932;48.702;8.884;2023-08-07T09:43:21;96290;;;17.3;70
68891;BME280;55932;48.702;8.884;2023-08-07T09:48:09;96290;;;17.4;70
68891;BME280;55932;48.702;8.884;2023-08-07T09:53:27;96300;;;17.6;69
68891;BME280;55932;48.702;8.884;2023-08-07T09:55:54;96300;;;17.9;69
68891;BME280;55932;48.702;8.884;2023-08-07T10:00:41;96300;;;17.7;69
68891;BME280;55932;48.702;8.884;2023-08-07T10:03:11;96300;;;18.3;69.5
68891;BME280;55932;48.702;8.884;2023-08-07T10:05:50;96300;;;19.4;69
68891;BME280;55932;48.702;8.884;2023-08-07T10:08:21;96300;;;20.2;68.5
68891;BME280;55932;48.702;8.884;2023-08-07T10:10:41;96300;;;19.7;68
68891;BME280;55932;48.702;8.884;2023-08-07T10:15:31;96290;;;18.8;68.5
68891;BME280;55932;48.702;8.884;2023-08-07T10:18:01;96290;;;18.2;69
68891;BME280;55932;48.702;8.884;2023-08-07T10:20:32;96290;;;17.7;69
68891;BME280;55932;48.702;8.884;2023-08-07T10:23:04;96300;;;17.8;69
68891;BME280;55932;48.702;8.884;2023-08-07T10:25:33;96300;;;19.5;68.5
68891;BME280;55932;48.702;8.884;2023-08-07T10:33:09;96300;;;19.8;67.5
68891;BME280;55932;48.702;8.884;2023-08-07T10:35:34;96300;;;19.5;68
68891;BME280;55932;48.702;8.884;2023-08-07T10:38:06;96290;;;19.2;68.5
68891;BME280;55932;48.702;8.884;2023-08-07T10:43:17;96300;;;18.7;68.5
68891;BME280;55932;48.702;8.884;2023-08-07T10:45:51;96300;;;18.4;69
68891;BME280;55932;48.702;8.884;2023-08-07T10:48:21;96310;;;18.2;69
68891;BME280;55932;48.702;8.884;2023-08-07T10:51:08;96310;;;18.8;69
68891;BME280;55932;48.702;8.884;2023-08-07T10:58:20;96310;;;18.4;68.5
68891;BME280;55932;48.702;8.884;2023-08-07T11:00:39;96300;;;18.4;68.5
68891;BME280;55932;48.702;8.884;2023-08-07T11:03:09;96300;;;18.7;68.5
68891;BME280;55932;48.702;8.884;2023-08-07T11:05:40;96300;;;18.7;68.5
68891;BME280;55932;48.702;8.884;2023-08-07T11:08:11;96310;;;19;68
68891;BME280;55932;48.702;8.884;2023-08-07T11:10:41;96310;;;19.7;68.5
68891;BME280;55932;48.702;8.884;2023-08-07T11:13:22;96310;;;21.2;67
68891;BME280;55932;48.702;8.884;2023-08-07T11:15:53;96300;;;22.1;66
68891;BME280;55932;48.702;8.884;2023-08-07T11:18:23;96310;;;21.7;66.5
68891;BME280;55932;48.702;8.884;2023-08-07T11:20:44;96310;;;21.1;67
68891;BME280;55932;48.702;8.884;2023-08-07T11:25:43;96300;;;19.4;68.5
68891;BME280;55932;48.702;8.884;2023-08-07T11:28:16;96300;;;18.6;69.5
68891;BME280;55932;48.702;8.884;2023-08-07T11:30:46;96320;;;17.9;69.5
68891;BME280;55932;48.702;8.884;2023-08-07T11:33:17;96310;;;17.3;70
68891;BME280;55932;48.702;8.884;2023-08-07T11:36:11;96320;;;17;70.5
68891;BME280;55932;48.702;8.884;2023-08-07T11:38:28;96320;;;16.8;70.5
68891;BME280;55932;48.702;8.884;2023-08-07T11:40:46;96320;;;16.5;70.5
68891;BME280;55932;48.702;8.884;2023-08-07T11:43:17;96310;;;16.4;70.5
68891;BME280;55932;48.702;8.884;2023-08-07T11:48:31;96320;;;16.3;70
68891;BME280;55932;48.702;8.884;2023-08-07T11:51:09;96320;;;16.2;70
68891;BME280;55932;48.702;8.884;2023-08-07T11:53:39;96320;;;16.1;70
68891;BME280;55932;48.702;8.884;2023-08-07T11:56:00;96320;;;15.9;70.5
68891;BME280;55932;48.702;8.884;2023-08-07T11:58:37;96330;;;15.7;70.5
68891;BME280;55932;48.702;8.884;2023-08-07T12:01:03;96320;;;15.5;70.5
68891;BME280;55932;48.702;8.884;2023-08-07T12:03:30;96330;;;15.4;70.5
68891;BME280;55932;48.702;8.884;2023-08-07T12:06:01;96340;;;15.1;71
68891;BME280;55932;48.702;8.884;2023-08-07T12:08:31;96340;;;14.8;71
68891;BME280;55932;48.702;8.884;2023-08-07T12:11:02;96340;;;14.5;71.5
68891;BME280;55932;48.702;8.884;2023-08-07T12:15:50;96340;;;14.7;71
68891;BME280;55932;48.702;8.884;2023-08-07T12:26:11;96330;;;16.6;68.5
68891;BME280;55932;48.702;8.884;2023-08-07T12:28:34;96330;;;16.3;69
68891;BME280;55932;48.702;8.884;2023-08-07T12:33:32;96340;;;15.5;70
68891;BME280;55932;48.702;8.884;2023-08-07T12:36:02;96330;;;15.2;70.5
68891;BME280;55932;48.702;8.884;2023-08-07T12:38:33;96340;;;15.1;70.5
68891;BME280;55932;48.702;8.884;2023-08-07T12:41:03;96350;;;14.9;70.5
68891;BME280;55932;48.702;8.884;2023-08-07T12:43:32;96360;;;14.1;72
68891;BME280;55932;48.702;8.884;2023-08-07T12:46:03;96350;;;13.4;72.5
68891;BME280;55932;48.702;8.884;2023-08-07T12:56:04;96340;;;14.7;70.5
68891;BME280;55932;48.702;8.884;2023-08-07T12:58:34;96340;;;15.5;69.5
68891;BME280;55932;48.702;8.884;2023-08-07T13:01:04;96330;;;16.3;69
68891;BME280;55932;48.702;8.884;2023-08-07T13:03:24;96330;;;17.1;68
68891;BME280;55932;48.702;8.884;2023-08-07T13:05:54;96330;;;17.5;67.5
68891;BME280;55932;48.702;8.884;2023-08-07T13:08:24;96330;;;17.4;68
68891;BME280;55932;48.702;8.884;2023-08-07T13:10:55;96330;;;17.1;68
68891;BME280;55932;48.702;8.884;2023-08-07T13:13:25;96340;;;16.7;68.5
68891;BME280;55932;48.702;8.884;2023-08-07T13:15:56;96340;;;16.3;69
68891;BME280;55932;48.702;8.884;2023-08-07T13:18:26;96340;;;16;69.5
68891;BME280;55932;48.702;8.884;2023-08-07T13:21:08;96340;;;16.1;69
68891;BME280;55932;48.702;8.884;2023-08-07T13:23:39;96340;;;16.4;68.5
68891;BME280;55932;48.702;8.884;2023-08-07T13:26:19;96340;;;17.2;68
68891;BME280;55932;48.702;8.884;2023-08-07T13:30:58;96330;;;23.2;60.5
68891;BME280;55932;48.702;8.884;2023-08-07T13:33:28;96330;;;24.1;59.5
68891;BME280;55932;48.702;8.884;2023-08-07T13:35:59;96320;;;24.9;58.5
68891;BME280;55932;48.702;8.884;2023-08-07T13:38:29;96320;;;25.8;57.5
68891;BME280;55932;48.702;8.884;2023-08-07T13:41:23;96320;;;24.7;59.5
68891;BME280;55932;48.702;8.884;2023-08-07T13:43:53;96330;;;22.9;62
68891;BME280;55932;48.702;8.884;2023-08-07T13:46:25;96330;;;21;65
68891;BME280;55932;48.702;8.884;2023-08-07T13:48:52;96340;;;21.8;64
68891;BME280;55932;48.702;8.884;2023-08-07T13:51:22;96340;;;21.7;64
68891;BME280;55932;48.702;8.884;2023-08-07T13:53:44;96330;;;20.7;65.5
68891;BME280;55932;48.702;8.884;2023-08-07T13:56:13;96330;;;20.8;65
68891;BME280;55932;48.702;8.884;2023-08-07T14:01:13;96340;;;19.4;67
68891;BME280;55932;48.702;8.884;2023-08-07T14:03:53;96340;;;20.2;66
68891;BME280;55932;48.702;8.884;2023-08-07T14:06:13;96340;;;21.2;64.5
68891;BME280;55932;48.702;8.884;2023-08-07T14:08:43;96340;;;20.4;65.5
68891;BME280;55932;48.702;8.884;2023-08-07T14:11:13;96350;;;20.9;65
68891;BME280;55932;48.702;8.884;2023-08-07T14:13:53;96350;;;21.1;64.5
68891;BME280;55932;48.702;8.884;2023-08-07T14:21:35;96350;;;21.6;63.5
68891;BME280;55932;48.702;8.884;2023-08-07T14:24:15;96350;;;20.7;65.5
68891;BME280;55932;48.702;8.884;2023-08-07T14:26:37;96360;;;19.5;67
68891;BME280;55932;48.702;8.884;2023-08-07T14:29:07;96360;;;18.5;68
68891;BME280;55932;48.702;8.884;2023-08-07T14:31:28;96370;;;17.9;69
68891;BME280;55932;48.702;8.884;2023-08-07T14:36:19;96380;;;17.3;69
68891;BME280;55932;48.702;8.884;2023-08-07T14:38:51;96380;;;17.1;69.5
68891;BME280;55932;48.702;8.884;2023-08-07T14:41:18;96380;;;16.9;69.5
68891;BME280;55932;48.702;8.884;2023-08-07T14:43:58;96380;;;16.8;69.5
68891;BME280;55932;48.702;8.884;2023-08-07T14:46:19;96380;;;16.8;69.5
68891;BME280;55932;48.702;8.884;2023-08-07T14:48:49;96380;;;16.9;69
68891;BME280;55932;48.702;8.884;2023-08-07T14:51:24;96370;;;17;69
68891;BME280;55932;48.702;8.884;2023-08-07T14:53:49;96370;;;17.3;68.5
68891;BME280;55932;48.702;8.884;2023-08-07T14:56:08;96370;;;17.6;68
68891;BME280;55932;48.702;8.884;2023-08-07T14:58:39;96370;;;17.9;68
68891;BME280;55932;48.702;8.884;2023-08-07T15:06:11;96360;;;20.9;63.5
68891;BME280;55932;48.702;8.884;2023-08-07T15:08:41;96360;;;19.7;65.5
68891;BME280;55932;48.702;8.884;2023-08-07T15:11:16;96360;;;19.2;66.5
68891;BME280;55932;48.702;8.884;2023-08-07T15:16:24;96350;;;18.8;67
68891;BME280;55932;48.702;8.884;2023-08-07T15:21:25;96360;;;19;66.5
68891;BME280;55932;48.702;8.884;2023-08-07T15:23:55;96360;;;19;66.5
68891;BME280;55932;48.702;8.884;2023-08-07T15:26:24;96360;;;18.9;67
68891;BME280;55932;48.702;8.884;2023-08-07T15:31:14;96360;;;19.6;66
68891;BME280;55932;48.702;8.884;2023-08-07T15:33:44;96370;;;19.2;66.5
68891;BME280;55932;48.702;8.884;2023-08-07T15:36:15;96370;;;19.1;67
68891;BME280;55932;48.702;8.884;2023-08-07T15:38:45;96360;;;18.9;67
68891;BME280;55932;48.702;8.884;2023-08-07T15:41:16;96370;;;20;65
68891;BME280;55932;48.702;8.884;2023-08-07T15:43:46;96360;;;22.8;60
68891;BME280;55932;48.702;8.884;2023-08-07T15:46:17;96360;;;24.1;58.5
68891;BME280;55932;48.702;8.884;2023-08-07T15:48:47;96360;;;25.4;56.5
68891;BME280;55932;48.702;8.884;2023-08-07T15:51:29;96370;;;23.3;60.5
68891;BME280;55932;48.702;8.884;2023-08-07T15:53:59;96370;;;21.8;63
68891;BME280;55932;48.702;8.884;2023-08-07T15:56:38;96370;;;20.9;64
68891;BME280;55932;48.702;8.884;2023-08-07T15:58:49;96370;;;21.7;62.5
68891;BME280;55932;48.702;8.884;2023-08-07T16:01:19;96360;;;23.6;59.5
68891;BME280;55932;48.702;8.884;2023-08-07T16:03:49;96360;;;23.5;59.5
68891;BME280;55932;48.702;8.884;2023-08-07T16:06:19;96360;;;23.6;59.5
68891;BME280;55932;48.702;8.884;2023-08-07T16:08:50;96350;;;22.5;61
68891;BME280;55932;48.702;8.884;2023-08-07T16:11:21;96360;;;21.9;62.5
68891;BME280;55932;48.702;8.884;2023-08-07T16:13:58;96360;;;21.5;63.5
68891;BME280;55932;48.702;8.884;2023-08-07T16:16:26;96360;;;21.6;63.5
68891;BME280;55932;48.702;8.884;2023-08-07T16:23:53;96350;;;20.9;64
68891;BME280;55932;48.702;8.884;2023-08-07T16:26:24;96360;;;19.9;65.5
68891;BME280;55932;48.702;8.884;2023-08-07T16:28:54;96360;;;18.7;67
68891;BME280;55932;48.702;8.884;2023-08-07T16:34:06;96370;;;17.5;68.5
68891;BME280;55932;48.702;8.884;2023-08-07T16:36:36;96380;;;17.3;69
68891;BME280;55932;48.702;8.884;2023-08-07T16:39:07;96370;;;17.2;69
68891;BME280;55932;48.702;8.884;2023-08-07T16:41:37;96380;;;17.2;69
68891;BME280;55932;48.702;8.884;2023-08-07T16:44:07;96380;;;17.2;69
68891;BME280;55932;48.702;8.884;2023-08-07T16:46:38;96380;;;17.2;69
68891;BME280;55932;48.702;8.884;2023-08-07T16:49:08;96370;;;17.2;69
68891;BME280;55932;48.702;8.884;2023-08-07T16:52:04;96380;;;17.3;68.5
68891;BME280;55932;48.702;8.884;2023-08-07T16:59:30;96380;;;17.3;68.5
68891;BME280;55932;48.702;8.884;2023-08-07T17:01:52;96380;;;17.4;68.5
68891;BME280;55932;48.702;8.884;2023-08-07T17:06:42;96380;;;17.6;68
68891;BME280;55932;48.702;8.884;2023-08-07T17:09:11;96380;;;17.8;68
68891;BME280;55932;48.702;8.884;2023-08-07T17:11:41;96380;;;17.7;68
68891;BME280;55932;48.702;8.884;2023-08-07T17:19:23;96380;;;17.5;68.5
68891;BME280;55932;48.702;8.884;2023-08-07T17:22:05;96380;;;17.6;68
68891;BME280;55932;48.702;8.884;2023-08-07T17:29:14;96380;;;17.7;68
68891;BME280;55932;48.702;8.884;2023-08-07T17:31:44;96380;;;17.6;68
68891;BME280;55932;48.702;8.884;2023-08-07T17:34:14;96370;;;17.5;68.5
68891;BME280;55932;48.702;8.884;2023-08-07T17:36:44;96370;;;17.3;68.5
68891;BME280;55932;48.702;8.884;2023-08-07T17:39:14;96380;;;17.2;68.5
68891;BME280;55932;48.702;8.884;2023-08-07T17:41:33;96380;;;17.1;68.5
68891;BME280;55932;48.702;8.884;2023-08-07T17:44:04;96380;;;16.9;69
68891;BME280;55932;48.702;8.884;2023-08-07T17:46:34;96370;;;16.8;69
68891;BME280;55932;48.702;8.884;2023-08-07T17:49:05;96380;;;16.7;69
68891;BME280;55932;48.702;8.884;2023-08-07T17:54:06;96380;;;16.3;69.5
68891;BME280;55932;48.702;8.884;2023-08-07T17:56:36;96390;;;16;70
68891;BME280;55932;48.702;8.884;2023-08-07T17:59:07;96390;;;15.7;70
68891;BME280;55932;48.702;8.884;2023-08-07T18:01:37;96380;;;15.5;70
68891;BME280;55932;48.702;8.884;2023-08-07T18:06:49;96390;;;15.5;70
68891;BME280;55932;48.702;8.884;2023-08-07T18:09:29;96390;;;15.4;70
68891;BME280;55932;48.702;8.884;2023-08-07T18:11:59;96390;;;15.3;70
68891;BME280;55932;48.702;8.884;2023-08-07T18:14:20;96390;;;15.2;70.5
68891;BME280;55932;48.702;8.884;2023-08-07T18:16:50;96400;;;15;70.5
68891;BME280;55932;48.702;8.884;2023-08-07T18:19:21;96390;;;14.9;70.5
68891;BME280;55932;48.702;8.884;2023-08-07T18:24:10;96400;;;14.8;70.5
68891;BME280;55932;48.702;8.884;2023-08-07T18:26:40;96400;;;14.7;71
68891;BME280;55932;48.702;8.884;2023-08-07T18:34:12;96410;;;14.5;71
68891;BME280;55932;48.702;8.884;2023-08-07T18:36:43;96410;;;14.4;71